Time;durP1;ratioP1;P1;durP2;ratioP2;P2;SDS_P1;SDS_P2;PMS_P1;PMS_P2;Temp;Humidity;BMP_temperature;BMP_pressure;BME280_temperature;BME280_humidity;BME280_pressure;Samples;Min_cycle;Max_cycle;Signal;HPM_P1;HPM_P2
2023/03/11 00:01:02;;;;;;;7.57;4.47;;;;;;;;;;5086693;28;20204;-81
2023/03/11 00:03:29;;;;;;;3.23;2.93;;;;;;;;;;5072617;28;20208;-82
2023/03/11 00:05:57;;;;;;;3.83;2.40;;;;;;;;;;5075887;28;20754;-81
2023/03/11 00:08:24;;;;;;;10.00;4.93;;;;;;;;;;5082703;28;20229;-81
2023/03/11 00:10:54;;;;;;;3.50;3.03;;;;;;;;;;5075939;28;20260;-81
2023/03/11 00:13:21;;;;;;;5.37;2.70;;;;;;;;;;5093128;28;20586;-80
2023/03/11 00:15:49;;;;;;;4.10;2.40;;;;;;;;;;5092154;28;20211;-81
2023/03/11 00:18:18;;;;;;;3.87;2.97;;;;;;;;;;5081385;28;20208;-81
2023/03/11 00:20:46;;;;;;;3.07;2.60;;;;;;;;;;5090218;28;20204;-81
2023/03/11 00:23:14;;;;;;;6.00;2.40;;;;;;;;;;5092371;28;20213;-81
2023/03/11 00:25:43;;;;;;;3.57;2.73;;;;;;;;;;5073707;28;20229;-81
2023/03/11 00:28:10;;;;;;;2.90;2.20;;;;;;;;;;5072764;28;20197;-81
2023/03/11 00:30:37;;;;;;;3.67;2.73;;;;;;;;;;5078429;28;20648;-83
2023/03/11 00:33:04;;;;;;;2.77;2.37;;;;;;;;;;5092631;28;20211;-81
2023/03/11 00:35:34;;;;;;;5.83;2.60;;;;;;;;;;5072219;28;20221;-81
2023/03/11 00:38:02;;;;;;;3.53;2.10;;;;;;;;;;5085798;28;20200;-82
2023/03/11 00:40:31;;;;;;;4.03;2.50;;;;;;;;;;5084688;28;20197;-81
2023/03/11 00:42:58;;;;;;;4.77;2.67;;;;;;;;;;5085467;28;20625;-81
2023/03/11 00:45:25;;;;;;;6.37;2.80;;;;;;;;;;5071607;28;20706;-82
2023/03/11 00:47:53;;;;;;;4.97;2.23;;;;;;;;;;5072153;28;20211;-81
2023/03/11 00:50:21;;;;;;;2.57;1.97;;;;;;;;;;5072013;28;20189;-81
2023/03/11 00:52:50;;;;;;;4.97;2.90;;;;;;;;;;5071767;28;20250;-81
2023/03/11 00:55:18;;;;;;;2.70;2.50;;;;;;;;;;5072107;28;20209;-81
2023/03/11 00:57:46;;;;;;;4.60;2.63;;;;;;;;;;5074886;28;20200;-81
2023/03/11 01:00:15;;;;;;;4.90;2.53;;;;;;;;;;5082239;28;20205;-81
2023/03/11 01:02:41;;;;;;;5.63;2.30;;;;;;;;;;5085425;28;20215;-81
2023/03/11 01:05:09;;;;;;;8.60;2.80;;;;;;;;;;5082128;28;20228;-86
2023/03/11 01:07:35;;;;;;;4.67;2.83;;;;;;;;;;5087712;28;20636;-81
2023/03/11 01:10:05;;;;;;;5.30;2.40;;;;;;;;;;5082199;28;20267;-82
2023/03/11 01:12:31;;;;;;;2.60;2.07;;;;;;;;;;5090963;28;20204;-82
2023/03/11 01:14:58;;;;;;;2.47;2.27;;;;;;;;;;5080776;28;20729;-81
2023/03/11 01:17:25;;;;;;;7.03;2.53;;;;;;;;;;5083331;28;20634;-81
2023/03/11 01:19:52;;;;;;;4.70;2.27;;;;;;;;;;5071706;28;20205;-81
2023/03/11 01:22:19;;;;;;;4.57;2.20;;;;;;;;;;5071807;28;20213;-80
2023/03/11 01:24:46;;;;;;;2.70;2.10;;;;;;;;;;5071854;28;20239;-81
2023/03/11 01:27:14;;;;;;;3.77;2.50;;;;;;;;;;5084773;28;20217;-83
2023/03/11 01:29:41;;;;;;;2.57;1.90;;;;;;;;;;5071488;28;20761;-82
2023/03/11 01:32:08;;;;;;;3.20;2.53;;;;;;;;;;5076926;28;20205;-81
2023/03/11 01:34:35;;;;;;;3.00;2.10;;;;;;;;;;5079212;28;20220;-81
2023/03/11 01:37:02;;;;;;;3.30;2.03;;;;;;;;;;5084637;28;20251;-81
2023/03/11 01:39:29;;;;;;;3.00;2.60;;;;;;;;;;5084368;28;20208;-81
2023/03/11 01:41:56;;;;;;;6.77;2.43;;;;;;;;;;5070328;28;20201;-81
2023/03/11 01:44:24;;;;;;;2.40;2.00;;;;;;;;;;5071131;28;20782;-81
2023/03/11 01:47:30;;;;;;;4.03;2.10;;;;;;;;;;5084564;28;20213;-81
2023/03/11 01:49:57;;;;;;;2.87;2.03;;;;;;;;;;5067091;28;20687;-81
2023/03/11 01:52:24;;;;;;;3.77;2.50;;;;;;;;;;5071105;28;20683;-81
2023/03/11 01:54:50;;;;;;;1.63;1.53;;;;;;;;;;5090193;28;20219;-82
2023/03/11 01:57:17;;;;;;;2.67;2.30;;;;;;;;;;5091334;28;20635;-82
2023/03/11 01:59:49;;;;;;;3.70;2.13;;;;;;;;;;5101577;28;20267;-82
2023/03/11 02:02:19;;;;;;;2.80;2.27;;;;;;;;;;5084255;28;20354;-81
2023/03/11 02:04:46;;;;;;;3.03;2.27;;;;;;;;;;5058385;28;20232;-81
2023/03/11 02:07:14;;;;;;;4.50;2.23;;;;;;;;;;5083244;28;20200;-81
2023/03/11 02:09:42;;;;;;;5.73;2.60;;;;;;;;;;5083778;28;20212;-81
2023/03/11 02:12:11;;;;;;;7.43;2.37;;;;;;;;;;5084372;28;20205;-81
2023/03/11 02:14:40;;;;;;;3.27;2.10;;;;;;;;;;5071265;28;20212;-81
2023/03/11 02:17:08;;;;;;;2.53;2.10;;;;;;;;;;5084345;28;20204;-81
2023/03/11 02:19:41;;;;;;;5.20;2.60;;;;;;;;;;5070972;28;20209;-81
2023/03/11 02:22:09;;;;;;;3.43;1.93;;;;;;;;;;5070866;28;20761;-80
2023/03/11 02:24:41;;;;;;;2.27;2.07;;;;;;;;;;5070843;28;20273;-81
2023/03/11 02:27:10;;;;;;;4.40;2.90;;;;;;;;;;5070680;28;20259;-80
2023/03/11 02:29:38;;;;;;;4.67;2.40;;;;;;;;;;5070672;28;20200;-81
2023/03/11 02:32:07;;;;;;;4.30;3.50;;;;;;;;;;5075056;28;20645;-80
2023/03/11 02:34:36;;;;;;;4.60;3.07;;;;;;;;;;5078976;28;20293;-80
2023/03/11 02:37:05;;;;;;;3.87;3.10;;;;;;;;;;5070484;28;20201;-80
2023/03/11 02:39:33;;;;;;;3.77;2.27;;;;;;;;;;5072976;28;20262;-80
2023/03/11 02:42:02;;;;;;;3.60;2.53;;;;;;;;;;5060704;28;20201;-80
2023/03/11 02:44:30;;;;;;;7.30;2.53;;;;;;;;;;5074483;28;20228;-82
2023/03/11 02:46:58;;;;;;;4.27;2.40;;;;;;;;;;5074292;28;20217;-81
2023/03/11 02:49:25;;;;;;;5.03;2.90;;;;;;;;;;5073571;28;20692;-81
2023/03/11 02:51:52;;;;;;;4.13;2.77;;;;;;;;;;5094459;28;20637;-81
2023/03/11 02:54:18;;;;;;;4.80;3.50;;;;;;;;;;5079949;28;20753;-81
2023/03/11 02:56:45;;;;;;;3.40;2.53;;;;;;;;;;5074067;28;20570;-81
2023/03/11 02:59:12;;;;;;;2.63;2.00;;;;;;;;;;5074243;28;20232;-83
2023/03/11 03:01:40;;;;;;;4.50;2.47;;;;;;;;;;5074244;28;20213;-81
2023/03/11 03:04:07;;;;;;;3.17;2.80;;;;;;;;;;5074263;28;20642;-81
2023/03/11 03:06:34;;;;;;;6.07;2.70;;;;;;;;;;5073817;28;20260;-81
2023/03/11 03:09:01;;;;;;;7.30;3.37;;;;;;;;;;5075337;28;20737;-81
2023/03/11 03:11:28;;;;;;;3.40;2.47;;;;;;;;;;5085383;28;20255;-81
2023/03/11 03:13:55;;;;;;;5.97;2.67;;;;;;;;;;5074856;28;20209;-81
2023/03/11 03:16:21;;;;;;;4.50;2.90;;;;;;;;;;5085596;28;20209;-81
2023/03/11 03:18:50;;;;;;;3.93;3.00;;;;;;;;;;5072408;28;20232;-81
2023/03/11 03:21:17;;;;;;;7.27;3.87;;;;;;;;;;5073896;28;20306;-81
2023/03/11 03:23:43;;;;;;;8.27;3.03;;;;;;;;;;5087046;28;20217;-81
2023/03/11 03:26:13;;;;;;;4.93;3.03;;;;;;;;;;5083023;28;20702;-81
2023/03/11 03:28:40;;;;;;;4.70;3.13;;;;;;;;;;5077002;28;20631;-81
2023/03/11 03:31:09;;;;;;;9.73;3.67;;;;;;;;;;5082380;28;20211;-81
2023/03/11 03:33:36;;;;;;;5.23;3.33;;;;;;;;;;5093650;28;20262;-80
2023/03/11 03:36:08;;;;;;;4.30;3.27;;;;;;;;;;5082738;28;20256;-80
2023/03/11 03:38:35;;;;;;;6.37;3.03;;;;;;;;;;5073741;28;20208;-81
2023/03/11 03:41:02;;;;;;;5.67;3.23;;;;;;;;;;5073325;28;20688;-81
2023/03/11 03:43:28;;;;;;;8.00;2.93;;;;;;;;;;5078280;28;20215;-81
2023/03/11 03:45:56;;;;;;;4.13;2.97;;;;;;;;;;5080004;28;20233;-81
2023/03/11 03:48:23;;;;;;;4.77;2.63;;;;;;;;;;5080971;28;20688;-81
2023/03/11 03:50:50;;;;;;;6.80;2.87;;;;;;;;;;5064410;28;20201;-81
2023/03/11 03:53:18;;;;;;;3.33;3.00;;;;;;;;;;5073109;28;20212;-86
2023/03/11 03:55:45;;;;;;;6.33;2.97;;;;;;;;;;5085892;28;20200;-82
2023/03/11 03:58:12;;;;;;;6.30;3.20;;;;;;;;;;5079369;28;20208;-82
2023/03/11 04:00:39;;;;;;;4.50;2.83;;;;;;;;;;5079139;28;20193;-82
2023/03/11 04:03:06;;;;;;;5.17;3.37;;;;;;;;;;5086354;28;20201;-82
2023/03/11 04:05:33;;;;;;;4.70;3.33;;;;;;;;;;5073053;28;20224;-82
2023/03/11 04:08:01;;;;;;;6.40;3.40;;;;;;;;;;5092456;28;20239;-82
2023/03/11 04:10:29;;;;;;;3.80;3.40;;;;;;;;;;5092891;28;20228;-82
2023/03/11 04:12:55;;;;;;;6.87;3.93;;;;;;;;;;5079790;28;20200;-82
2023/03/11 04:15:22;;;;;;;6.83;3.37;;;;;;;;;;5079053;28;20691;-82
2023/03/11 04:17:49;;;;;;;5.47;3.60;;;;;;;;;;5092964;28;20213;-83
2023/03/11 04:20:20;;;;;;;6.03;3.33;;;;;;;;;;5078862;28;20204;-82
2023/03/11 04:22:46;;;;;;;6.00;3.00;;;;;;;;;;5091457;28;20207;-81
2023/03/11 04:25:13;;;;;;;4.97;3.30;;;;;;;;;;5074476;28;20276;-81
2023/03/11 04:27:44;;;;;;;10.97;3.60;;;;;;;;;;5084631;28;20208;-81
2023/03/11 04:30:13;;;;;;;5.33;3.47;;;;;;;;;;5085677;28;20261;-81
2023/03/11 04:32:39;;;;;;;5.77;3.20;;;;;;;;;;5072135;28;20648;-81
2023/03/11 04:35:07;;;;;;;3.37;2.37;;;;;;;;;;5085343;28;20265;-81
2023/03/11 04:37:34;;;;;;;4.63;2.87;;;;;;;;;;5071949;28;20251;-81
2023/03/11 04:40:00;;;;;;;3.10;2.73;;;;;;;;;;5073974;28;20205;-83
2023/03/11 04:42:27;;;;;;;4.60;3.00;;;;;;;;;;5079919;28;20197;-83
2023/03/11 04:44:55;;;;;;;6.20;3.37;;;;;;;;;;5069818;28;20663;-83
2023/03/11 04:47:22;;;;;;;4.60;2.80;;;;;;;;;;5082695;28;20239;-84
2023/03/11 04:49:49;;;;;;;7.73;3.37;;;;;;;;;;5073212;28;20266;-83
2023/03/11 04:52:16;;;;;;;8.23;5.87;;;;;;;;;;5071723;28;20204;-83
2023/03/11 04:54:44;;;;;;;10.00;6.33;;;;;;;;;;5070440;28;20572;-83
2023/03/11 04:57:11;;;;;;;6.23;4.93;;;;;;;;;;5081677;28;20217;-84
2023/03/11 04:59:38;;;;;;;5.53;4.37;;;;;;;;;;5073553;28;20213;-83
2023/03/11 05:02:08;;;;;;;4.00;3.57;;;;;;;;;;5064216;28;20262;-83
2023/03/11 05:04:35;;;;;;;5.50;3.67;;;;;;;;;;5072892;28;20295;-84
2023/03/11 05:07:02;;;;;;;4.33;3.43;;;;;;;;;;5082566;28;20273;-83
2023/03/11 05:09:29;;;;;;;5.87;3.27;;;;;;;;;;5071465;28;20252;-83
2023/03/11 05:11:56;;;;;;;8.23;3.77;;;;;;;;;;5087517;28;20708;-83
2023/03/11 05:14:24;;;;;;;6.53;4.03;;;;;;;;;;5084538;28;20216;-83
2023/03/11 05:16:50;;;;;;;7.53;3.20;;;;;;;;;;5084487;28;20602;-82
2023/03/11 05:19:31;;;;;;;5.87;3.60;;;;;;;;;;5071849;28;20190;-82
2023/03/11 05:21:57;;;;;;;7.67;3.70;;;;;;;;;;5072589;28;20326;-81
2023/03/11 05:24:25;;;;;;;4.87;3.20;;;;;;;;;;5091008;28;20281;-81
2023/03/11 05:26:52;;;;;;;7.97;3.33;;;;;;;;;;5088670;28;20260;-80
2023/03/11 05:29:19;;;;;;;3.50;3.17;;;;;;;;;;5071264;28;20733;-80
2023/03/11 05:31:46;;;;;;;5.50;3.87;;;;;;;;;;5072954;28;20234;-80
2023/03/11 05:34:13;;;;;;;8.27;3.30;;;;;;;;;;5090989;28;20652;-80
2023/03/11 05:36:41;;;;;;;12.43;4.33;;;;;;;;;;5074300;28;20201;-80
2023/03/11 05:39:08;;;;;;;5.43;3.70;;;;;;;;;;5070822;28;20259;-80
2023/03/11 05:41:36;;;;;;;7.57;3.40;;;;;;;;;;5084129;28;20656;-80
2023/03/11 05:44:02;;;;;;;7.93;4.10;;;;;;;;;;5081262;28;20650;-79
2023/03/11 05:46:29;;;;;;;7.27;4.00;;;;;;;;;;5077599;28;20235;-81
2023/03/11 05:48:56;;;;;;;4.03;2.57;;;;;;;;;;5080982;28;20212;-81
2023/03/11 05:51:23;;;;;;;7.30;4.03;;;;;;;;;;5070791;28;20200;-81
2023/03/11 05:53:51;;;;;;;17.90;10.87;;;;;;;;;;5071103;28;20204;-83
2023/03/11 05:56:19;;;;;;;17.83;9.53;;;;;;;;;;5075001;28;20647;-81
2023/03/11 05:58:46;;;;;;;44.70;40.00;;;;;;;;;;5090910;28;20219;-82
2023/03/11 06:01:15;;;;;;;41.17;36.40;;;;;;;;;;5086234;28;20648;-81
2023/03/11 06:03:41;;;;;;;17.67;13.73;;;;;;;;;;5070822;28;20289;-82
2023/03/11 06:06:10;;;;;;;91.90;82.23;;;;;;;;;;5076094;28;20223;-82
2023/03/11 06:08:37;;;;;;;69.23;61.97;;;;;;;;;;5078575;28;20225;-82
2023/03/11 06:11:08;;;;;;;50.33;43.70;;;;;;;;;;5071061;28;20200;-83
2023/03/11 06:13:35;;;;;;;24.43;18.17;;;;;;;;;;5071898;28;20200;-82
2023/03/11 06:16:02;;;;;;;8.57;6.30;;;;;;;;;;5074730;28;20211;-83
2023/03/11 06:18:29;;;;;;;5.13;3.80;;;;;;;;;;5087773;28;20640;-82
2023/03/11 06:20:58;;;;;;;5.90;3.20;;;;;;;;;;5073700;28;20196;-84
2023/03/11 06:23:26;;;;;;;3.57;2.80;;;;;;;;;;5075377;28;20215;-86
2023/03/11 06:25:56;;;;;;;66.90;36.30;;;;;;;;;;5068390;28;20216;-82
2023/03/11 06:28:25;;;;;;;21.93;13.77;;;;;;;;;;5080656;28;20247;-82
2023/03/11 06:30:52;;;;;;;11.57;5.17;;;;;;;;;;5095199;28;20253;-82
2023/03/11 06:33:19;;;;;;;7.27;3.53;;;;;;;;;;5079358;28;20203;-81
2023/03/11 06:35:46;;;;;;;7.07;3.80;;;;;;;;;;5074268;28;20757;-81
2023/03/11 06:38:13;;;;;;;4.40;3.07;;;;;;;;;;5074734;28;20286;-82
2023/03/11 06:40:40;;;;;;;5.37;2.73;;;;;;;;;;5074354;28;20205;-82
2023/03/11 06:43:07;;;;;;;3.57;3.00;;;;;;;;;;5088926;28;20231;-82
2023/03/11 06:45:35;;;;;;;12.17;7.27;;;;;;;;;;5083720;28;20306;-82
2023/03/11 06:48:02;;;;;;;8.83;5.77;;;;;;;;;;5090385;28;20214;-82
2023/03/11 06:50:29;;;;;;;7.77;7.07;;;;;;;;;;5084827;28;20254;-82
2023/03/11 06:52:56;;;;;;;8.73;6.03;;;;;;;;;;5076977;28;20204;-81
2023/03/11 06:55:23;;;;;;;9.10;5.43;;;;;;;;;;5094784;28;20261;-82
2023/03/11 06:57:50;;;;;;;19.20;11.00;;;;;;;;;;5093235;28;20250;-82
2023/03/11 07:00:17;;;;;;;7.27;5.67;;;;;;;;;;5084160;28;21062;-82
2023/03/11 07:02:46;;;;;;;2.90;2.70;;;;;;;;;;5078514;28;20204;-82
2023/03/11 07:05:12;;;;;;;3.10;2.30;;;;;;;;;;5093339;28;20209;-82
2023/03/11 07:07:39;;;;;;;5.17;2.67;;;;;;;;;;5085296;28;20290;-81
2023/03/11 07:10:07;;;;;;;6.20;5.23;;;;;;;;;;5073205;28;20208;-82
2023/03/11 07:12:34;;;;;;;4.63;4.23;;;;;;;;;;5073049;28;20201;-82
2023/03/11 07:15:01;;;;;;;6.13;4.90;;;;;;;;;;5072724;28;20201;-82
2023/03/11 07:17:28;;;;;;;6.10;4.77;;;;;;;;;;5076978;28;20196;-82
2023/03/11 07:19:57;;;;;;;4.77;3.73;;;;;;;;;;5092515;28;20208;-82
2023/03/11 07:22:23;;;;;;;7.87;5.63;;;;;;;;;;5072663;28;20201;-82
2023/03/11 07:24:50;;;;;;;10.50;5.80;;;;;;;;;;5084230;28;20649;-82
2023/03/11 07:27:18;;;;;;;6.27;3.77;;;;;;;;;;5078684;28;20400;-82
2023/03/11 07:29:45;;;;;;;7.33;3.67;;;;;;;;;;5080305;28;20205;-82
2023/03/11 07:32:12;;;;;;;7.47;4.63;;;;;;;;;;5076398;28;20562;-82
2023/03/11 07:34:39;;;;;;;5.70;4.53;;;;;;;;;;5092772;28;20276;-81
2023/03/11 07:37:07;;;;;;;7.03;4.27;;;;;;;;;;5077816;28;20257;-82
2023/03/11 07:39:34;;;;;;;5.83;3.47;;;;;;;;;;5092127;28;20204;-82
2023/03/11 07:42:00;;;;;;;3.63;3.00;;;;;;;;;;5072116;28;20250;-82
2023/03/11 07:44:28;;;;;;;10.30;4.07;;;;;;;;;;5083850;28;20439;-82
2023/03/11 07:46:54;;;;;;;8.37;4.70;;;;;;;;;;5058898;28;20613;-82
2023/03/11 07:49:21;;;;;;;5.43;4.33;;;;;;;;;;5072666;28;20212;-82
2023/03/11 07:51:48;;;;;;;3.57;2.97;;;;;;;;;;5085188;28;20205;-81
2023/03/11 07:54:18;;;;;;;8.90;4.17;;;;;;;;;;5085769;28;20203;-82
2023/03/11 07:56:46;;;;;;;5.67;3.87;;;;;;;;;;5079817;28;20196;-82
2023/03/11 07:59:13;;;;;;;5.40;2.93;;;;;;;;;;5076352;28;20205;-82
2023/03/11 08:01:45;;;;;;;3.50;3.17;;;;;;;;;;5078656;28;20265;-82
2023/03/11 08:04:15;;;;;;;3.73;2.90;;;;;;;;;;5076600;28;20205;-81
2023/03/11 08:06:44;;;;;;;3.00;2.63;;;;;;;;;;5080741;28;20265;-81
2023/03/11 08:09:11;;;;;;;4.80;3.47;;;;;;;;;;5020860;28;1264901;-81
2023/03/11 08:11:39;;;;;;;6.57;2.90;;;;;;;;;;5093151;28;20200;-81
2023/03/11 08:14:06;;;;;;;4.27;1.90;;;;;;;;;;5089223;28;20208;-81
2023/03/11 08:16:34;;;;;;;3.63;2.20;;;;;;;;;;5082150;28;20208;-81
2023/03/11 08:19:01;;;;;;;5.33;2.30;;;;;;;;;;5075229;28;20213;-81
2023/03/11 08:21:30;;;;;;;2.50;2.17;;;;;;;;;;5072795;28;20193;-81
2023/03/11 08:23:58;;;;;;;4.40;2.53;;;;;;;;;;5077401;28;20200;-81
2023/03/11 08:26:25;;;;;;;2.30;1.97;;;;;;;;;;5080871;28;20795;-82
2023/03/11 08:28:54;;;;;;;2.90;1.97;;;;;;;;;;5086051;28;20197;-81
2023/03/11 08:31:24;;;;;;;1.90;1.80;;;;;;;;;;5084676;28;20682;-80
2023/03/11 08:33:52;;;;;;;1.63;1.50;;;;;;;;;;5072768;28;20279;-80
2023/03/11 08:36:20;;;;;;;2.17;1.97;;;;;;;;;;5084446;28;20699;-80
2023/03/11 08:38:46;;;;;;;2.67;2.20;;;;;;;;;;5071780;28;20657;-80
2023/03/11 08:41:14;;;;;;;2.67;2.47;;;;;;;;;;5084762;28;20202;-80
2023/03/11 08:43:41;;;;;;;3.13;2.83;;;;;;;;;;5079423;28;20261;-80
2023/03/11 08:46:15;;;;;;;2.33;1.87;;;;;;;;;;5091848;28;20218;-81
2023/03/11 08:48:41;;;;;;;3.27;2.77;;;;;;;;;;5083795;28;20204;-80
2023/03/11 08:51:11;;;;;;;2.50;2.10;;;;;;;;;;5085299;28;20200;-80
2023/03/11 08:53:39;;;;;;;2.10;2.00;;;;;;;;;;5080780;28;20686;-80
2023/03/11 08:56:06;;;;;;;2.57;2.17;;;;;;;;;;5075651;28;20201;-80
2023/03/11 08:58:33;;;;;;;4.17;1.83;;;;;;;;;;5082392;28;20273;-85
2023/03/11 09:01:00;;;;;;;3.33;1.67;;;;;;;;;;5091936;28;20257;-80
2023/03/11 09:03:31;;;;;;;1.87;1.73;;;;;;;;;;5091987;28;20277;-80
2023/03/11 09:05:58;;;;;;;3.93;3.23;;;;;;;;;;5091699;28;20194;-80
2023/03/11 09:08:25;;;;;;;4.13;1.87;;;;;;;;;;5091843;28;20240;-80
2023/03/11 09:10:52;;;;;;;1.70;1.60;;;;;;;;;;5090286;28;20200;-80
2023/03/11 09:13:19;;;;;;;1.93;1.50;;;;;;;;;;5091709;28;20693;-80
2023/03/11 09:15:46;;;;;;;4.13;3.70;;;;;;;;;;5074176;28;20201;-80
2023/03/11 09:18:13;;;;;;;1.90;1.80;;;;;;;;;;5081767;28;20710;-80
2023/03/11 09:20:41;;;;;;;6.90;5.57;;;;;;;;;;5091058;28;20261;-80
2023/03/11 09:23:09;;;;;;;3.60;2.43;;;;;;;;;;5080633;28;20202;-80
2023/03/11 09:25:36;;;;;;;3.00;2.20;;;;;;;;;;5075398;28;20597;-80
2023/03/11 09:28:03;;;;;;;2.80;2.53;;;;;;;;;;5091188;28;20712;-80
2023/03/11 09:30:30;;;;;;;3.17;2.20;;;;;;;;;;5077861;28;20256;-80
2023/03/11 09:32:57;;;;;;;2.00;1.40;;;;;;;;;;5091063;28;20202;-80
2023/03/11 09:35:25;;;;;;;2.20;1.70;;;;;;;;;;5071185;28;20242;-81
2023/03/11 09:37:53;;;;;;;1.50;1.40;;;;;;;;;;5083522;28;20263;-79
2023/03/11 09:40:22;;;;;;;2.40;2.20;;;;;;;;;;5076588;28;20197;-80
2023/03/11 09:42:57;;;;;;;2.40;2.20;;;;;;;;;;5091230;28;20640;-80
2023/03/11 09:45:26;;;;;;;2.70;2.50;;;;;;;;;;5057685;28;20234;-80
2023/03/11 09:48:07;;;;;;;2.13;2.00;;;;;;;;;;5070421;28;20646;-80
2023/03/11 09:50:35;;;;;;;3.83;1.50;;;;;;;;;;5080396;28;20745;-79
2023/03/11 09:53:13;;;;;;;1.57;1.40;;;;;;;;;;5088021;28;20208;-80
2023/03/11 09:55:43;;;;;;;3.07;2.20;;;;;;;;;;5070771;28;20212;-80
2023/03/11 09:58:17;;;;;;;6.47;1.80;;;;;;;;;;5076638;28;20197;-80
2023/03/11 10:00:45;;;;;;;2.27;2.07;;;;;;;;;;5077189;28;20213;-79
2023/03/11 10:03:25;;;;;;;1.63;1.50;;;;;;;;;;5078440;28;20596;-79
2023/03/11 10:05:54;;;;;;;1.40;1.30;;;;;;;;;;5090332;28;20256;-79
2023/03/11 10:08:29;;;;;;;1.93;1.27;;;;;;;;;;5091286;28;20240;-79
2023/03/11 10:11:00;;;;;;;1.10;1.00;;;;;;;;;;5090819;28;20193;-79
2023/03/11 10:13:30;;;;;;;1.20;1.17;;;;;;;;;;5090543;28;21129;-79
2023/03/11 10:16:05;;;;;;;1.20;1.10;;;;;;;;;;5090472;28;20214;-79
2023/03/11 10:18:47;;;;;;;1.30;1.13;;;;;;;;;;5084368;28;20209;-79
2023/03/11 10:21:23;;;;;;;2.23;1.57;;;;;;;;;;5065881;28;20627;-79
2023/03/11 10:24:11;;;;;;;2.40;2.13;;;;;;;;;;5073810;28;20635;-79
2023/03/11 10:26:43;;;;;;;2.47;1.60;;;;;;;;;;5077683;28;20734;-80
2023/03/11 10:29:15;;;;;;;1.57;1.47;;;;;;;;;;5083872;28;20695;-80
2023/03/11 10:31:45;;;;;;;4.73;2.00;;;;;;;;;;5078512;28;20204;-80
2023/03/11 10:34:17;;;;;;;2.03;1.90;;;;;;;;;;5088616;28;20615;-80
2023/03/11 10:36:52;;;;;;;5.40;4.00;;;;;;;;;;5079909;28;20262;-80
2023/03/11 10:39:22;;;;;;;3.60;3.23;;;;;;;;;;5090284;28;20686;-79
2023/03/11 10:41:52;;;;;;;1.90;1.80;;;;;;;;;;5090150;28;20690;-79
2023/03/11 10:44:22;;;;;;;2.83;2.47;;;;;;;;;;5090686;28;20200;-79
2023/03/11 10:46:49;;;;;;;2.47;2.27;;;;;;;;;;5090421;28;20231;-80
2023/03/11 10:49:19;;;;;;;3.87;1.50;;;;;;;;;;5090388;28;20192;-79
2023/03/11 10:51:56;;;;;;;1.07;1.07;;;;;;;;;;5090345;28;20207;-79
2023/03/11 10:54:29;;;;;;;1.30;1.20;;;;;;;;;;5066685;28;20202;-80
2023/03/11 10:56:58;;;;;;;1.70;1.60;;;;;;;;;;5090152;28;20606;-79
2023/03/11 10:59:27;;;;;;;2.60;2.30;;;;;;;;;;5091148;28;20200;-79
2023/03/11 11:01:56;;;;;;;2.33;2.13;;;;;;;;;;5094577;28;20198;-79
2023/03/11 11:04:35;;;;;;;3.53;1.50;;;;;;;;;;5083666;28;20679;-79
2023/03/11 11:07:21;;;;;;;1.37;1.27;;;;;;;;;;5092663;28;20678;-79
2023/03/11 11:10:13;;;;;;;1.20;1.13;;;;;;;;;;5093964;28;20682;-79
2023/03/11 11:12:52;;;;;;;2.77;1.47;;;;;;;;;;5093873;28;20208;-79
2023/03/11 11:15:23;;;;;;;2.43;1.63;;;;;;;;;;5080254;28;20215;-79
2023/03/11 11:17:51;;;;;;;1.20;1.10;;;;;;;;;;5068671;28;20268;-79
2023/03/11 11:20:19;;;;;;;5.57;1.97;;;;;;;;;;5092938;28;20700;-79
2023/03/11 11:22:52;;;;;;;1.50;1.40;;;;;;;;;;5093794;28;20204;-79
2023/03/11 11:25:29;;;;;;;1.97;1.87;;;;;;;;;;5092976;28;20702;-80
2023/03/11 11:27:57;;;;;;;1.20;1.10;;;;;;;;;;5093672;28;20225;-79
2023/03/11 11:30:25;;;;;;;4.83;2.63;;;;;;;;;;5093799;28;20204;-80
2023/03/11 11:32:52;;;;;;;1.70;1.60;;;;;;;;;;5093044;28;20216;-79
2023/03/11 11:35:22;;;;;;;1.10;1.10;;;;;;;;;;5079650;28;20282;-78
2023/03/11 11:37:51;;;;;;;1.77;1.37;;;;;;;;;;5093133;28;20262;-78
2023/03/11 11:40:28;;;;;;;1.30;1.20;;;;;;;;;;5093200;28;20207;-78
2023/03/11 11:42:57;;;;;;;1.03;0.93;;;;;;;;;;5093006;28;20196;-79
2023/03/11 11:45:35;;;;;;;1.50;1.40;;;;;;;;;;5093132;28;20200;-79
2023/03/11 11:48:07;;;;;;;1.57;1.33;;;;;;;;;;5092985;28;20655;-79
2023/03/11 11:50:35;;;;;;;1.07;1.07;;;;;;;;;;5077170;28;20693;-80
2023/03/11 11:53:09;;;;;;;3.37;3.07;;;;;;;;;;5072483;28;20212;-80
2023/03/11 11:55:40;;;;;;;1.43;1.33;;;;;;;;;;5072738;28;20212;-79
2023/03/11 11:58:11;;;;;;;9.07;5.63;;;;;;;;;;5082513;28;20694;-79
2023/03/11 12:00:45;;;;;;;9.43;5.43;;;;;;;;;;5092106;28;20570;-79
2023/03/11 12:03:28;;;;;;;1.73;1.63;;;;;;;;;;5092517;28;20764;-79
2023/03/11 12:05:57;;;;;;;2.37;1.70;;;;;;;;;;5066595;28;20204;-79
2023/03/11 12:08:27;;;;;;;1.57;1.47;;;;;;;;;;5092083;28;20232;-79
2023/03/11 12:10:58;;;;;;;3.70;2.77;;;;;;;;;;5079424;28;20598;-79
2023/03/11 12:13:50;;;;;;;2.47;2.27;;;;;;;;;;5092171;28;20265;-79
2023/03/11 12:16:29;;;;;;;1.20;1.20;;;;;;;;;;5082892;28;20225;-80
2023/03/11 12:19:00;;;;;;;2.13;1.93;;;;;;;;;;5089133;28;20200;-79
2023/03/11 12:21:40;;;;;;;2.83;1.37;;;;;;;;;;5092278;28;20316;-80
2023/03/11 12:24:18;;;;;;;1.70;1.60;;;;;;;;;;5092371;28;20211;-79
2023/03/11 12:26:48;;;;;;;1.30;1.20;;;;;;;;;;5078353;28;20201;-84
2023/03/11 12:29:24;;;;;;;1.10;1.00;;;;;;;;;;5083411;28;20221;-79
2023/03/11 12:31:51;;;;;;;1.00;1.00;;;;;;;;;;5075372;28;20253;-80
2023/03/11 12:34:20;;;;;;;0.90;0.90;;;;;;;;;;5081847;28;20706;-80
2023/03/11 12:36:48;;;;;;;1.10;1.10;;;;;;;;;;5075556;28;20200;-80
2023/03/11 12:39:22;;;;;;;0.90;0.90;;;;;;;;;;5092295;28;20196;-80
2023/03/11 12:42:17;;;;;;;1.00;1.00;;;;;;;;;;5070966;28;20207;-81
2023/03/11 12:44:44;;;;;;;3.37;1.43;;;;;;;;;;5079251;28;20280;-81
2023/03/11 12:47:27;;;;;;;1.10;1.10;;;;;;;;;;5077150;28;20212;-80
2023/03/11 12:49:56;;;;;;;1.37;1.27;;;;;;;;;;5082005;28;20205;-79
2023/03/11 12:52:25;;;;;;;1.03;1.03;;;;;;;;;;5091316;28;20199;-80
2023/03/11 12:55:36;;;;;;;1.30;1.20;;;;;;;;;;5091563;28;20204;-79
2023/03/11 12:58:42;;;;;;;1.70;1.60;;;;;;;;;;5092020;28;20231;-80
2023/03/11 13:01:20;;;;;;;4.43;3.97;;;;;;;;;;5082166;28;20204;-80
2023/03/11 13:03:53;;;;;;;1.57;1.47;;;;;;;;;;5089188;28;20200;-80
2023/03/11 13:06:30;;;;;;;1.70;1.60;;;;;;;;;;5091211;28;20204;-80
2023/03/11 13:08:58;;;;;;;2.07;1.97;;;;;;;;;;5078130;28;20314;-80
2023/03/11 13:11:39;;;;;;;3.80;1.80;;;;;;;;;;5078834;28;20586;-81
2023/03/11 13:14:20;;;;;;;1.30;1.20;;;;;;;;;;5089728;28;20200;-80
2023/03/11 13:16:47;;;;;;;1.33;1.23;;;;;;;;;;5090741;28;20203;-81
2023/03/11 13:19:47;;;;;;;2.50;2.30;;;;;;;;;;5079577;28;20208;-80
2023/03/11 13:22:40;;;;;;;2.37;1.83;;;;;;;;;;5060948;28;20295;-80
2023/03/11 13:25:26;;;;;;;1.60;1.50;;;;;;;;;;5075036;28;20218;-80
2023/03/11 13:27:58;;;;;;;1.53;1.43;;;;;;;;;;5070719;28;20216;-80
2023/03/11 13:30:28;;;;;;;1.57;1.47;;;;;;;;;;5083690;28;20207;-80
2023/03/11 13:33:12;;;;;;;1.63;1.53;;;;;;;;;;5068894;28;20287;-80
2023/03/11 13:35:51;;;;;;;0.80;0.80;;;;;;;;;;5067994;28;20200;-80
2023/03/11 13:38:45;;;;;;;3.07;2.87;;;;;;;;;;5083710;28;20223;-80
2023/03/11 13:41:17;;;;;;;1.53;1.43;;;;;;;;;;5080688;28;20207;-80
2023/03/11 13:43:46;;;;;;;1.90;1.80;;;;;;;;;;5090556;28;20855;-80
2023/03/11 13:46:22;;;;;;;1.60;1.50;;;;;;;;;;5085013;28;20258;-80
2023/03/11 13:48:50;;;;;;;1.63;1.53;;;;;;;;;;5077484;28;20231;-80
2023/03/11 13:51:19;;;;;;;1.63;1.30;;;;;;;;;;5090340;28;20205;-81
2023/03/11 13:53:50;;;;;;;1.50;1.40;;;;;;;;;;5091017;28;20201;-83
2023/03/11 13:56:18;;;;;;;1.03;0.93;;;;;;;;;;5078410;28;20204;-81
2023/03/11 13:58:44;;;;;;;1.20;1.20;;;;;;;;;;5084634;28;20207;-80
2023/03/11 14:01:19;;;;;;;1.37;1.27;;;;;;;;;;5082510;28;20192;-80
2023/03/11 14:03:47;;;;;;;1.30;1.20;;;;;;;;;;5081813;28;20589;-82
2023/03/11 14:06:16;;;;;;;1.27;1.10;;;;;;;;;;5090050;28;20678;-80
2023/03/11 14:08:43;;;;;;;1.17;1.07;;;;;;;;;;5090527;28;20292;-79
2023/03/11 14:11:16;;;;;;;1.00;1.00;;;;;;;;;;5086198;28;20202;-79
2023/03/11 14:13:48;;;;;;;1.23;1.13;;;;;;;;;;5077615;28;20275;-80
2023/03/11 14:16:21;;;;;;;1.40;1.20;;;;;;;;;;5090640;28;20199;-80
2023/03/11 14:18:49;;;;;;;1.37;1.27;;;;;;;;;;5090251;28;20216;-80
2023/03/11 14:21:17;;;;;;;1.87;1.60;;;;;;;;;;5077293;28;20198;-80
2023/03/11 14:23:46;;;;;;;2.47;2.27;;;;;;;;;;5078573;28;20200;-79
2023/03/11 14:26:14;;;;;;;1.00;1.00;;;;;;;;;;5090103;28;20657;-80
2023/03/11 14:28:43;;;;;;;1.30;1.20;;;;;;;;;;5076898;28;20279;-79
2023/03/11 14:31:23;;;;;;;3.10;1.13;;;;;;;;;;5090388;28;20195;-79
2023/03/11 14:33:56;;;;;;;1.90;1.40;;;;;;;;;;5062924;28;20196;-79
2023/03/11 14:36:22;;;;;;;1.10;1.00;;;;;;;;;;5079970;28;20197;-79
2023/03/11 14:38:49;;;;;;;1.23;1.20;;;;;;;;;;5086930;28;20207;-80
2023/03/11 14:41:19;;;;;;;1.00;1.00;;;;;;;;;;5079040;28;20214;-82
2023/03/11 14:43:49;;;;;;;0.87;0.87;;;;;;;;;;5094489;28;20283;-83
2023/03/11 14:46:20;;;;;;;0.80;0.80;;;;;;;;;;5085740;28;20203;-79
2023/03/11 14:48:49;;;;;;;1.37;1.27;;;;;;;;;;5082791;28;20244;-84
2023/03/11 14:51:18;;;;;;;1.13;1.07;;;;;;;;;;5083388;28;20290;-80
2023/03/11 14:53:46;;;;;;;5.87;2.53;;;;;;;;;;5080556;28;20200;-79
2023/03/11 14:56:17;;;;;;;4.17;3.67;;;;;;;;;;5093503;28;20598;-79